Pagrindinis puslapis
METAR-TAF:

METAR-TAF

Oro uostai :

Dakaras, Senegalas

platuma: 14-44N, ilguma: 017-30W, Aukštis: 27 m

Dabartinis oras

Ataskaita buvo paskelbta 1 valandą ir 2 minutes, ne 17:00 UTC
Vėjas 16 kt iš Šiaurės
Temperatūra 31°C
Drėgmė 75%
Slėgis 1011 hPa
Matomumas: 6000 m

METAR: GOOY 221700Z 36016KT 6000 NSC 31/26 Q1011

Laikas: 18:02 (18:02 UTC)

Prognozė

Ataskaita buvo paskelbta 32 minutes, ne 17:30 UTC
Prognozė galioja nuo 22 metu 18 UTC su 23 metu 24 UTC
Vėjas 12 kt iš Šiaurės
Matomumas: 8000 m

TAF: GOOY 221730Z 2218/2324 36012KT 8000 NSC

Orai ataskaitas ir orų prognozės (METAR, TAF).

turimą stotys yra geltonos ir raudonos taškus žemėlapyje.

Perkelti pele per norėdami pamatyti stoties vardą.

Tada spustelėkite, norėdami matyti oro stebėjimo ir prognozės.

Norėdami pakeisti žemėlapį: spustelėkite ant žalios mygtukų su juodo kryžiaus žemyn,; žalią mygtuką su brūkšneliu, jei norite nutolinti; arba žalių rodyklių gretimoms žemėlapius.


METAR-TAF: